Divinopolis de Goias, Brazil
Current Conditions -  °F | °C
As of 11:00 AM on Tuesday 21 Oct 2014 (Local Time) from SBBR Reporting Station
Clear Clear  
Wind Chill: 81°   Ceiling: Unl
Heat Index: 81°   Visibility: 6mi
Dew Point: 59°   Wind: 10mph
Humidity: 48%   Direction: 120°ESE
Pressure: 30.09"   Gusts: NA
Location:  13.3°S, 46.39°W
Report Text: SBBR 211300Z 12009KT CAVOK 27/15 Q1019
Loading
Personal Weather Stations






























Interactive Weather Map
Tropical Storm Tracking
New forecast layout! Learn more

10-Day Weather Forecast

Advertisements
Track Severe Weather on mobile